Impacts METAR Board INFO
IDs:

KIAD - Washington/Dulles In, VA, US

Updated at: 1535 UTC 25 Feb 2018
Potential Impact None Slight Moderate High
Time25/03Z 25/04Z 25/05Z 25/06Z 25/07Z 25/08Z 25/09Z 25/10Z 25/11Z 25/12Z 25/13Z 25/14Z 25/15Z
VIS7 4 4 4 3 2 1.75 1.75 1 1.25 0.25 2 2
CIG13 7 9 7 6 4 3 3 2 2 2 75 5
CoverOVCOVCOVCOVCOVCOVCOVCOVCOVXOVCOVCOVCOVC
FltCatMVFRIFRIFRIFRIFRLIFRLIFRLIFRLIFRLIFRLIFRIFRIFR
WX--BRRA BR-RA BRBRBRBRBRBR-RA BR-RA BR-RA BR-RA BR
WDir6090700901201101101301502701200
WSpd3 4 6 0 3 3 3 4 6 4 5 4 0
WGst-- -- -- -- -- -- -- -- -- -- -- -- --
Raw hourly METARs
KIAD 250252Z 06003KT 7SM SCT007 OVC013 09/08 A3015 RMK AO2 RAE35 SLP209 P0002 60003 T00890083 57001
KIAD 250352Z 09004KT 4SM BR OVC007 08/08 A3011 RMK AO2 SLP197 T00830083
KIAD 250452Z 07006KT 4SM RA BR OVC009 08/08 A3010 RMK AO2 RAB02 SLP193 P0015 T00830083 401060083
KIAD 250552Z 00000KT 4SM -RA BR OVC007 08/08 A3010 RMK AO2 SLP192 P0005 60023 T00830083 10094 20083 56016
KIAD 250705Z 09003KT 3SM BR OVC006 08/08 A3006 RMK AO2 T00830083
KIAD 250803Z 12003KT 2SM BR OVC004 08/08 A3004 RMK AO2 T00830083
KIAD 250852Z 11003KT 1 3/4SM BR OVC003 08/08 A3003 RMK AO2 SLP167 60000 T00830083 56025
KIAD 250952Z 11004KT 1 3/4SM BR OVC003 08/08 A2998 RMK AO2 SLP152 T00780078
KIAD 251052Z 13006KT 1SM R01R/3500V4500FT BR VV002 08/08 A2996 RMK AO2 SLP147 T00780078
KIAD 251152Z 15004KT 1 1/4SM R01R/5000V5500FT -RA BR OVC002 08/08 A2996 RMK AO2 RAB32 SLP146 P0001 60001 70037 T00780078 10083 20078 56021
KIAD 251252Z 27005KT 1/4SM R01R/P6000FT -RA BR OVC002 08/08 A3001 RMK AO2 SFC VIS 3/4 PRESRR SLP162 P0005 T00780078
KIAD 251352Z 12004KT 2SM -RA BR SCT005 BKN075 OVC090 08/08 A3000 RMK AO2 SFC VIS 4 SLP159 VIS SW-NW 1 1/2 P0006 T00830083
KIAD 251452Z 00000KT 2SM -RA BR BKN005 BKN070 OVC090 09/09 A2999 RMK AO2 SFC VIS 5 SLP155 P0001 60012 T00890089 50008